Time;durP1;ratioP1;P1;durP2;ratioP2;P2;SDS_P1;SDS_P2;PMS_P1;PMS_P2;Temp;Humidity;BMP_temperature;BMP_pressure;BME280_temperature;BME280_humidity;BME280_pressure;Samples;Min_cycle;Max_cycle;Signal;HPM_P1;HPM_P2
2023/04/18 05:23:11;;;;;;;59.43;28.73;;;5.50;99.90;;;;;;4911359;23;20231;-57
2023/04/18 05:25:39;;;;;;;56.50;29.27;;;5.70;99.90;;;;;;4843608;29;20199;-57
2023/04/18 05:28:08;;;;;;;48.70;28.50;;;5.70;99.90;;;;;;4849839;29;20219;-57
2023/04/18 05:30:36;;;;;;;49.23;27.77;;;5.80;99.90;;;;;;4849487;29;20299;-58
2023/04/18 05:33:05;;;;;;;46.47;25.60;;;5.80;99.90;;;;;;4851076;29;20231;-57
2023/04/18 05:35:33;;;;;;;42.73;25.60;;;5.90;99.90;;;;;;4849246;29;20915;-57
2023/04/18 05:38:01;;;;;;;43.03;24.63;;;5.90;99.90;;;;;;4850794;29;20228;-57
2023/04/18 05:40:31;;;;;;;35.03;22.17;;;6.00;99.90;;;;;;4855788;29;20188;-57
2023/04/18 05:43:00;;;;;;;30.87;20.73;;;6.20;99.90;;;;;;4853916;29;20203;-57
2023/04/18 05:45:28;;;;;;;35.17;19.83;;;6.50;99.90;;;;;;4855012;29;20223;-57
2023/04/18 05:47:56;;;;;;;27.90;18.53;;;6.80;99.90;;;;;;4854426;29;20247;-57
2023/04/18 05:50:24;;;;;;;29.37;17.50;;;7.10;99.90;;;;;;4850678;29;20230;-57
2023/04/18 05:52:53;;;;;;;25.27;15.77;;;7.30;99.90;;;;;;4853753;29;20701;-56
2023/04/18 05:55:21;;;;;;;26.67;16.17;;;7.50;99.90;;;;;;4853214;29;20199;-59
2023/04/18 05:57:51;;;;;;;25.23;15.60;;;7.70;99.90;;;;;;4853425;29;20247;-57
2023/04/18 06:00:19;;;;;;;23.13;14.40;;;7.90;99.90;;;;;;4849836;29;20276;-57
2023/04/18 06:02:48;;;;;;;19.87;14.33;;;7.90;99.90;;;;;;4851006;29;20231;-59
2023/04/18 06:05:17;;;;;;;19.23;13.93;;;8.10;99.90;;;;;;4854296;29;20555;-56
2023/04/18 06:07:46;;;;;;;24.83;14.13;;;8.30;99.90;;;;;;4857232;29;20250;-58
2023/04/18 06:10:15;;;;;;;18.90;12.57;;;8.30;99.90;;;;;;4858451;29;20211;-56
2023/04/18 06:12:43;;;;;;;20.27;12.50;;;8.40;99.90;;;;;;4853511;29;20224;-56
2023/04/18 06:15:13;;;;;;;17.67;12.80;;;8.50;99.90;;;;;;4858787;29;20223;-57
2023/04/18 06:17:41;;;;;;;22.17;13.00;;;8.60;99.90;;;;;;4858532;29;20227;-56
2023/04/18 06:20:10;;;;;;;19.03;12.73;;;8.60;99.90;;;;;;4852865;29;20232;-56
2023/04/18 06:22:38;;;;;;;16.00;12.10;;;8.70;99.90;;;;;;4855214;29;20227;-57
2023/04/18 06:25:08;;;;;;;17.37;12.50;;;8.80;99.90;;;;;;4849548;29;20211;-57
2023/04/18 06:27:37;;;;;;;19.27;12.47;;;8.90;99.90;;;;;;4848426;29;20240;-56
2023/04/18 06:30:07;;;;;;;20.60;12.40;;;8.90;99.90;;;;;;4852437;29;20228;-57
2023/04/18 06:32:37;;;;;;;19.90;12.10;;;9.20;99.90;;;;;;4856250;29;20235;-56
2023/04/18 06:35:06;;;;;;;20.50;12.30;;;9.20;99.90;;;;;;4853996;29;20235;-57
2023/04/18 06:37:34;;;;;;;15.53;11.53;;;9.50;99.90;;;;;;4858066;29;20200;-57
2023/04/18 06:40:02;;;;;;;26.10;12.10;;;9.50;99.90;;;;;;4859349;29;20223;-57
2023/04/18 06:42:31;;;;;;;14.80;10.97;;;9.30;99.90;;;;;;4854685;29;20643;-57
2023/04/18 06:44:59;;;;;;;17.50;12.00;;;9.50;99.90;;;;;;4857893;29;20291;-57
2023/04/18 06:47:28;;;;;;;15.30;11.40;;;9.70;99.90;;;;;;4855960;29;20730;-57
2023/04/18 06:49:57;;;;;;;14.23;11.17;;;9.90;99.90;;;;;;4858167;29;20247;-57
2023/04/18 06:52:26;;;;;;;16.53;10.93;;;10.20;99.90;;;;;;4851764;29;20861;-57
2023/04/18 06:54:54;;;;;;;13.97;10.70;;;10.40;99.90;;;;;;4855393;29;20200;-57
2023/04/18 06:57:22;;;;;;;14.27;11.20;;;10.30;99.90;;;;;;4855116;29;20231;-57
2023/04/18 06:59:51;;;;;;;17.50;10.43;;;10.30;99.90;;;;;;4858469;29;20235;-57
2023/04/18 07:02:19;;;;;;;12.17;10.43;;;10.40;99.90;;;;;;4854238;29;20279;-57
2023/04/18 07:04:48;;;;;;;14.27;10.43;;;10.30;99.90;;;;;;4855715;29;20242;-57
2023/04/18 07:07:17;;;;;;;17.37;11.00;;;10.40;99.90;;;;;;4854338;29;20244;-57
2023/04/18 07:09:45;;;;;;;12.83;10.23;;;10.40;99.90;;;;;;4856040;29;20342;-56
2023/04/18 07:12:14;;;;;;;14.67;10.77;;;10.70;99.90;;;;;;4853385;29;20264;-57
2023/04/18 07:14:42;;;;;;;15.37;10.33;;;10.70;99.90;;;;;;4859811;29;20234;-57
2023/04/18 07:17:10;;;;;;;11.97;10.60;;;10.80;99.90;;;;;;4858203;29;20597;-57
2023/04/18 07:19:39;;;;;;;12.27;10.13;;;10.50;99.90;;;;;;4857798;29;20204;-56
2023/04/18 07:22:07;;;;;;;14.87;10.80;;;10.30;99.90;;;;;;4859570;29;20288;-57
2023/04/18 07:24:38;;;;;;;14.13;10.97;;;10.50;99.90;;;;;;4858236;29;20283;-57
2023/04/18 07:27:08;;;;;;;14.17;10.80;;;10.60;99.90;;;;;;4854918;29;20231;-57
2023/04/18 07:29:36;;;;;;;15.50;10.70;;;10.40;99.90;;;;;;4856127;29;20702;-56
2023/04/18 07:32:05;;;;;;;13.10;10.67;;;10.40;99.90;;;;;;4855397;29;20223;-57
2023/04/18 07:34:36;;;;;;;14.93;10.53;;;10.60;99.90;;;;;;4854702;29;20282;-57
2023/04/18 07:37:05;;;;;;;14.03;10.40;;;11.00;99.90;;;;;;4858579;29;20662;-56
2023/04/18 07:39:35;;;;;;;14.30;10.50;;;11.40;99.90;;;;;;4855784;29;20228;-57
2023/04/18 07:42:05;;;;;;;15.90;10.73;;;11.60;99.90;;;;;;4858869;29;20219;-57
2023/04/18 07:44:35;;;;;;;13.97;10.00;;;11.80;99.90;;;;;;4843918;29;20970;-57
2023/04/18 07:47:03;;;;;;;12.47;10.23;;;11.90;99.90;;;;;;4859498;29;20215;-57
2023/04/18 07:49:32;;;;;;;17.23;10.00;;;12.10;99.90;;;;;;4856183;29;20247;-57
2023/04/18 07:52:00;;;;;;;11.17;9.70;;;12.50;99.90;;;;;;4861128;29;20625;-57
2023/04/18 07:54:28;;;;;;;11.70;9.57;;;12.60;99.90;;;;;;4858076;29;20223;-56
2023/04/18 07:56:57;;;;;;;12.57;9.87;;;12.70;99.90;;;;;;4857719;29;20235;-57
2023/04/18 07:59:28;;;;;;;11.87;10.07;;;12.70;99.90;;;;;;4860817;29;20223;-57
2023/04/18 08:01:56;;;;;;;14.37;10.37;;;12.90;99.90;;;;;;4854590;29;20231;-57
2023/04/18 08:04:25;;;;;;;14.70;9.93;;;13.30;99.90;;;;;;4855385;29;20343;-57
2023/04/18 08:06:57;;;;;;;12.37;9.67;;;13.40;99.90;;;;;;4852874;29;20207;-57
2023/04/18 08:09:25;;;;;;;11.83;10.50;;;13.50;99.90;;;;;;4861592;29;20591;-57
2023/04/18 08:11:54;;;;;;;12.10;9.87;;;13.30;99.90;;;;;;4853522;29;20235;-57
2023/04/18 08:14:23;;;;;;;14.80;9.93;;;13.40;99.90;;;;;;4857560;29;20283;-57
2023/04/18 08:16:53;;;;;;;11.10;9.90;;;13.40;99.90;;;;;;4856886;29;20230;-58
2023/04/18 08:19:22;;;;;;;13.63;10.43;;;13.20;99.90;;;;;;4853862;29;20570;-57
2023/04/18 08:21:51;;;;;;;12.87;10.53;;;12.90;99.90;;;;;;4854606;29;20251;-58
2023/04/18 08:24:19;;;;;;;14.87;11.40;;;12.60;99.90;;;;;;4856615;29;20223;-57
2023/04/18 08:26:47;;;;;;;16.00;11.50;;;12.30;99.90;;;;;;4858652;29;20645;-57
2023/04/18 08:29:16;;;;;;;14.40;11.47;;;12.50;99.90;;;;;;4853070;29;20227;-57
2023/04/18 08:31:44;;;;;;;14.43;11.23;;;12.40;99.90;;;;;;4856033;29;20247;-58
2023/04/18 08:34:14;;;;;;;15.87;12.33;;;12.70;99.90;;;;;;4852770;29;20226;-57
2023/04/18 08:36:42;;;;;;;13.03;10.70;;;12.80;99.90;;;;;;4857396;29;20306;-58
2023/04/18 08:39:11;;;;;;;13.27;11.60;;;13.20;99.90;;;;;;4858696;29;20227;-57
2023/04/18 08:41:43;;;;;;;13.73;11.17;;;13.30;99.90;;;;;;4850421;29;20789;-57
2023/04/18 08:44:12;;;;;;;13.50;11.63;;;13.90;99.90;;;;;;4858839;29;20229;-57
2023/04/18 08:46:40;;;;;;;13.30;11.23;;;14.70;99.90;;;;;;4858530;29;21128;-57
2023/04/18 08:49:08;;;;;;;13.33;11.73;;;14.80;99.90;;;;;;4857187;29;20639;-57
2023/04/18 08:51:42;;;;;;;17.13;12.17;;;14.40;99.90;;;;;;4855414;29;20413;-58
2023/04/18 08:54:12;;;;;;;13.77;12.27;;;14.00;99.90;;;;;;4856163;29;20227;-57
2023/04/18 08:56:41;;;;;;;13.30;11.90;;;13.50;99.90;;;;;;4855561;29;20219;-57
2023/04/18 08:59:10;;;;;;;15.33;13.03;;;13.40;99.90;;;;;;4854449;29;20690;-57
2023/04/18 09:01:55;;;;;;;17.17;13.17;;;13.30;99.90;;;;;;4856552;29;20550;-57
2023/04/18 09:04:34;;;;;;;14.80;13.03;;;13.50;99.90;;;;;;4855162;29;20690;-58
2023/04/18 09:07:06;;;;;;;16.50;13.83;;;13.20;99.90;;;;;;4853632;29;20199;-56
2023/04/18 09:09:46;;;;;;;19.17;14.40;;;12.70;99.90;;;;;;4855620;29;20705;-57
2023/04/18 09:12:17;;;;;;;16.07;13.63;;;12.40;99.90;;;;;;4854923;29;20232;-57
2023/04/18 09:14:47;;;;;;;16.63;13.40;;;13.00;99.90;;;;;;4852822;29;20227;-57
2023/04/18 09:17:32;;;;;;;17.60;14.30;;;13.40;99.90;;;;;;4858596;29;20223;-58
2023/04/18 09:20:05;;;;;;;16.97;13.83;;;13.00;99.90;;;;;;4851480;29;20229;-58
2023/04/18 09:22:49;;;;;;;23.30;15.00;;;13.60;99.90;;;;;;4855843;29;20262;-57
2023/04/18 09:25:29;;;;;;;18.13;13.77;;;13.60;99.90;;;;;;4853723;29;20274;-57
2023/04/18 09:27:59;;;;;;;19.97;14.50;;;13.30;99.90;;;;;;4855804;29;20241;-57
2023/04/18 09:30:35;;;;;;;18.60;15.33;;;13.00;99.90;;;;;;4853710;29;20789;-57
2023/04/18 09:33:08;;;;;;;20.37;15.23;;;12.70;99.90;;;;;;4852997;29;20227;-57
2023/04/18 09:35:37;;;;;;;21.50;15.47;;;13.50;99.90;;;;;;4848677;29;20768;-57
2023/04/18 09:38:08;;;;;;;18.97;15.10;;;13.90;99.90;;;;;;4855013;29;20528;-57
2023/04/18 09:40:36;;;;;;;19.63;15.20;;;14.50;99.90;;;;;;4855607;29;20192;-57
2023/04/18 09:43:20;;;;;;;18.77;14.03;;;14.70;99.90;;;;;;4859171;29;20257;-57
2023/04/18 09:45:48;;;;;;;15.83;13.90;;;14.70;99.90;;;;;;4856921;29;20675;-56
2023/04/18 09:48:17;;;;;;;19.73;13.77;;;14.60;99.90;;;;;;4853909;29;20238;-56
2023/04/18 09:50:47;;;;;;;15.47;13.50;;;15.20;99.90;;;;;;4851469;29;20223;-57
2023/04/18 09:53:19;;;;;;;14.30;12.40;;;15.20;99.90;;;;;;4857734;29;20298;-57
2023/04/18 09:55:51;;;;;;;14.43;12.93;;;15.00;99.90;;;;;;4851967;29;20237;-57
2023/04/18 09:58:22;;;;;;;15.50;12.23;;;15.60;99.90;;;;;;4855757;29;20291;-58
2023/04/18 10:00:52;;;;;;;18.83;12.80;;;16.70;99.90;;;;;;4851745;29;20223;-57
2023/04/18 10:03:24;;;;;;;14.47;12.57;;;17.40;99.90;;;;;;4852448;29;20299;-57
2023/04/18 10:05:53;;;;;;;15.30;13.47;;;16.40;99.90;;;;;;4852465;29;20246;-57
2023/04/18 10:08:27;;;;;;;17.00;13.20;;;16.10;99.90;;;;;;4850839;29;20594;-57
2023/04/18 10:10:57;;;;;;;13.07;11.73;;;16.20;99.90;;;;;;4854062;29;20291;-57
2023/04/18 10:13:27;;;;;;;17.00;12.93;;;16.90;99.90;;;;;;4849659;29;20678;-57
2023/04/18 10:15:56;;;;;;;13.00;11.60;;;17.20;99.90;;;;;;4855010;29;20232;-58
2023/04/18 10:18:26;;;;;;;14.40;12.90;;;17.80;99.90;;;;;;4853488;29;20330;-58
2023/04/18 10:21:03;;;;;;;20.03;12.53;;;17.10;99.90;;;;;;4857026;29;20227;-57
2023/04/18 10:23:37;;;;;;;14.83;12.70;;;16.10;99.90;;;;;;4836626;29;20262;-57
2023/04/18 10:26:06;;;;;;;14.03;12.13;;;15.80;99.90;;;;;;4838193;29;20219;-58
2023/04/18 10:28:55;;;;;;;14.70;12.43;;;16.70;99.90;;;;;;4834944;29;20200;-57
2023/04/18 10:31:25;;;;;;;16.63;12.20;;;17.70;99.90;;;;;;4835766;29;20295;-57
2023/04/18 10:33:55;;;;;;;13.60;11.63;;;18.10;99.90;;;;;;4839116;29;20196;-57
2023/04/18 10:36:32;;;;;;;14.60;12.27;;;18.40;99.90;;;;;;4840707;29;20227;-57
2023/04/18 10:39:20;;;;;;;17.23;13.00;;;17.80;99.90;;;;;;4837315;29;20258;-57
2023/04/18 10:41:50;;;;;;;22.80;13.50;;;16.30;99.90;;;;;;4838409;29;20286;-57
2023/04/18 10:44:22;;;;;;;16.73;13.03;;;15.70;99.90;;;;;;4838809;29;20240;-58
2023/04/18 10:47:23;;;;;;;15.80;13.27;;;15.80;99.90;;;;;;4839179;29;20230;-58
2023/04/18 10:49:57;;;;;;;17.03;12.73;;;16.50;99.90;;;;;;4840146;29;20230;-57
2023/04/18 10:52:26;;;;;;;16.67;13.17;;;16.40;99.90;;;;;;4835076;29;20215;-57
2023/04/18 10:55:07;;;;;;;18.00;13.07;;;16.20;99.90;;;;;;4838698;29;20201;-57
2023/04/18 10:57:40;;;;;;;17.57;12.93;;;16.30;99.90;;;;;;4840992;29;20282;-57
2023/04/18 11:00:11;;;;;;;15.30;12.17;;;16.80;99.90;;;;;;4839449;29;20224;-57
2023/04/18 11:02:41;;;;;;;13.90;11.67;;;17.70;99.90;;;;;;4837129;29;20255;-58
2023/04/18 11:05:10;;;;;;;16.87;12.90;;;17.30;99.90;;;;;;4840058;29;20232;-57
2023/04/18 11:07:43;;;;;;;15.57;12.67;;;16.80;99.90;;;;;;4842090;29;20252;-57
2023/04/18 11:10:16;;;;;;;17.87;12.00;;;16.90;99.90;;;;;;4855792;29;20200;-57
2023/04/18 11:12:44;;;;;;;15.43;12.07;;;17.00;99.90;;;;;;4841800;29;20220;-57
2023/04/18 11:15:16;;;;;;;18.07;11.63;;;16.70;99.90;;;;;;4841091;29;20247;-59
2023/04/18 11:17:44;;;;;;;15.57;11.53;;;17.10;99.90;;;;;;4829515;29;20242;-58
2023/04/18 11:20:14;;;;;;;16.93;11.40;;;17.80;99.90;;;;;;4827891;29;20591;-58
2023/04/18 11:22:49;;;;;;;13.40;10.60;;;18.30;99.90;;;;;;4849240;29;20555;-58
2023/04/18 11:25:21;;;;;;;14.27;10.83;;;17.60;99.90;;;;;;4858108;29;20191;-57
2023/04/18 11:27:51;;;;;;;15.97;12.00;;;16.60;99.90;;;;;;4860137;29;20268;-58
2023/04/18 11:30:19;;;;;;;13.70;11.20;;;16.00;99.90;;;;;;4860665;29;20229;-57
2023/04/18 11:32:47;;;;;;;16.33;11.03;;;15.60;99.90;;;;;;4854513;29;20248;-58
2023/04/18 11:35:16;;;;;;;11.80;10.13;;;15.90;99.90;;;;;;4859399;29;20225;-58
2023/04/18 11:37:45;;;;;;;13.03;10.03;;;16.80;99.90;;;;;;4861028;29;20237;-58
2023/04/18 11:40:14;;;;;;;15.73;10.60;;;16.30;99.90;;;;;;4861528;29;20201;-57
2023/04/18 11:42:44;;;;;;;15.80;10.97;;;15.90;99.90;;;;;;4861241;29;20235;-57
2023/04/18 11:45:13;;;;;;;12.20;10.80;;;15.80;99.90;;;;;;4862022;29;20225;-57
2023/04/18 11:47:43;;;;;;;13.83;10.93;;;15.40;99.90;;;;;;4844638;29;20308;-58
2023/04/18 11:50:13;;;;;;;14.77;11.37;;;15.00;99.90;;;;;;4861823;29;20318;-57
2023/04/18 11:52:42;;;;;;;13.00;11.07;;;14.80;99.90;;;;;;4860143;29;20256;-58
2023/04/18 11:55:16;;;;;;;13.77;10.70;;;15.40;99.90;;;;;;4861150;29;20249;-58
2023/04/18 11:57:56;;;;;;;12.90;10.80;;;15.20;99.90;;;;;;4857554;29;20869;-58
2023/04/18 12:00:33;;;;;;;13.13;10.73;;;15.40;99.90;;;;;;4858393;29;20231;-57
2023/04/18 12:03:04;;;;;;;17.97;10.60;;;15.70;99.90;;;;;;4856861;29;20236;-58
2023/04/18 12:05:35;;;;;;;16.93;10.73;;;15.70;99.90;;;;;;4854584;29;20558;-58
2023/04/18 12:08:10;;;;;;;12.87;11.47;;;16.30;99.90;;;;;;4855550;29;20266;-57
2023/04/18 12:10:46;;;;;;;14.73;12.10;;;15.90;99.90;;;;;;4858544;29;20657;-57
2023/04/18 12:13:16;;;;;;;15.47;11.73;;;15.40;99.90;;;;;;4855744;29;20203;-58
2023/04/18 12:15:45;;;;;;;19.57;12.77;;;15.70;99.90;;;;;;4854175;29;20271;-58
2023/04/18 12:18:18;;;;;;;15.10;11.70;;;15.90;99.90;;;;;;4856150;29;20914;-57
2023/04/18 12:20:49;;;;;;;14.80;13.10;;;16.20;99.90;;;;;;4858344;29;20256;-58
2023/04/18 12:23:32;;;;;;;14.43;12.93;;;16.20;99.90;;;;;;4854980;29;20232;-57
2023/04/18 12:26:02;;;;;;;16.40;13.53;;;15.80;99.90;;;;;;4859694;29;20223;-58
2023/04/18 12:28:33;;;;;;;14.87;12.60;;;15.50;99.90;;;;;;4854927;29;20202;-57
2023/04/18 12:31:04;;;;;;;17.27;12.10;;;15.20;99.90;;;;;;4853149;29;20196;-57
2023/04/18 12:33:32;;;;;;;14.27;12.77;;;15.20;99.90;;;;;;4857532;29;20595;-57
2023/04/18 12:36:00;;;;;;;13.70;12.30;;;15.50;99.90;;;;;;4858278;29;20262;-58
2023/04/18 12:38:29;;;;;;;12.60;11.30;;;15.60;99.90;;;;;;4858311;29;20231;-57
2023/04/18 12:40:57;;;;;;;14.43;12.50;;;15.90;99.90;;;;;;4858746;29;20232;-57
2023/04/18 12:43:25;;;;;;;14.93;12.30;;;15.90;99.90;;;;;;4860545;29;20192;-56
2023/04/18 12:45:55;;;;;;;15.60;12.20;;;15.70;99.90;;;;;;4844884;29;20197;-57
2023/04/18 12:48:23;;;;;;;15.40;12.63;;;15.50;99.90;;;;;;4860367;29;20285;-57
2023/04/18 12:50:51;;;;;;;16.50;14.00;;;15.50;99.90;;;;;;4856420;29;20638;-57
2023/04/18 12:53:20;;;;;;;17.53;15.40;;;15.30;99.90;;;;;;4858569;29;20292;-57
2023/04/18 12:55:49;;;;;;;16.97;15.17;;;15.30;99.90;;;;;;4860491;29;20230;-60
2023/04/18 12:58:19;;;;;;;17.93;15.77;;;15.50;99.90;;;;;;4860852;29;20536;-59
2023/04/18 13:00:47;;;;;;;17.87;15.47;;;15.90;99.90;;;;;;4860891;29;20243;-58
2023/04/18 13:03:17;;;;;;;16.57;14.87;;;16.10;99.90;;;;;;4843619;29;20224;-59
2023/04/18 13:05:46;;;;;;;18.37;15.67;;;15.70;99.90;;;;;;4860465;29;20262;-59
2023/04/18 13:08:15;;;;;;;17.60;15.77;;;15.50;99.90;;;;;;4853837;29;20746;-59
2023/04/18 13:10:46;;;;;;;18.63;15.70;;;15.30;99.90;;;;;;4860427;29;20682;-59
2023/04/18 13:13:14;;;;;;;16.83;14.97;;;15.00;99.90;;;;;;4859680;29;20219;-59
2023/04/18 13:15:43;;;;;;;17.03;14.40;;;14.80;99.90;;;;;;4860516;29;20675;-59
2023/04/18 13:18:11;;;;;;;17.70;14.47;;;14.90;99.90;;;;;;4858286;29;20224;-59
2023/04/18 13:20:41;;;;;;;18.60;14.57;;;15.10;99.90;;;;;;4860301;29;20231;-59
2023/04/18 13:23:09;;;;;;;14.30;13.00;;;15.00;99.90;;;;;;4855867;29;20247;-59
2023/04/18 13:25:38;;;;;;;14.13;12.73;;;14.90;99.90;;;;;;4843639;29;20202;-60
2023/04/18 13:28:06;;;;;;;13.40;11.53;;;15.00;99.90;;;;;;4859659;29;20667;-56
2023/04/18 13:30:35;;;;;;;13.03;11.73;;;15.40;99.90;;;;;;4852984;29;20231;-59
2023/04/18 13:33:04;;;;;;;12.17;11.07;;;15.80;99.90;;;;;;4858805;29;20231;-57
2023/04/18 13:35:32;;;;;;;13.43;12.07;;;15.60;99.90;;;;;;4859124;29;20283;-57
2023/04/18 13:38:02;;;;;;;12.70;11.50;;;15.50;99.90;;;;;;4856217;29;20283;-59
2023/04/18 13:40:32;;;;;;;12.17;10.90;;;15.30;99.90;;;;;;4856940;29;20199;-59
2023/04/18 13:43:00;;;;;;;12.83;11.23;;;15.30;99.90;;;;;;4850884;29;20199;-59
2023/04/18 13:45:28;;;;;;;13.10;10.73;;;14.90;99.90;;;;;;4859826;29;20223;-60
2023/04/18 13:47:57;;;;;;;13.97;11.77;;;15.30;99.90;;;;;;4859651;29;20235;-57
2023/04/18 13:50:25;;;;;;;11.63;10.43;;;15.40;99.90;;;;;;4851361;29;20686;-60
2023/04/18 13:52:53;;;;;;;11.10;10.00;;;15.40;99.90;;;;;;4857040;29;20231;-59
2023/04/18 13:55:24;;;;;;;11.13;10.13;;;15.20;99.90;;;;;;4859730;29;20203;-60
2023/04/18 13:57:52;;;;;;;14.83;10.60;;;15.10;99.90;;;;;;4854470;29;20248;-59
2023/04/18 14:00:21;;;;;;;11.10;9.97;;;15.20;99.90;;;;;;4836556;29;20225;-56
2023/04/18 14:02:49;;;;;;;10.50;9.50;;;15.40;99.90;;;;;;4858586;29;20216;-57
2023/04/18 14:05:18;;;;;;;11.23;9.93;;;15.50;99.90;;;;;;4858496;29;20223;-56
2023/04/18 14:07:47;;;;;;;10.30;9.27;;;15.60;99.90;;;;;;4857700;29;20247;-57
2023/04/18 14:10:15;;;;;;;9.60;8.00;;;15.60;99.90;;;;;;4859847;29;20203;-59
2023/04/18 14:12:45;;;;;;;9.73;8.83;;;15.90;99.90;;;;;;4859371;29;20594;-60
2023/04/18 14:15:14;;;;;;;9.40;8.60;;;15.70;99.90;;;;;;4857781;29;20266;-57
2023/04/18 14:17:42;;;;;;;10.23;8.60;;;15.90;99.90;;;;;;4855930;29;20590;-57
2023/04/18 14:20:14;;;;;;;11.07;8.43;;;15.90;99.90;;;;;;4859386;29;20310;-56
2023/04/18 14:22:42;;;;;;;11.53;9.13;;;16.00;99.90;;;;;;4852865;29;20319;-57
2023/04/18 14:25:11;;;;;;;10.93;8.63;;;16.20;99.90;;;;;;4863029;29;20639;-56
2023/04/18 14:27:40;;;;;;;10.23;8.93;;;16.40;99.90;;;;;;4862441;29;20298;-57
2023/04/18 14:30:11;;;;;;;9.50;8.60;;;16.10;99.90;;;;;;4855411;29;20268;-59
2023/04/18 14:32:39;;;;;;;11.30;8.37;;;16.00;99.90;;;;;;4859102;29;20595;-59
2023/04/18 14:35:09;;;;;;;11.97;9.43;;;16.20;99.90;;;;;;4857595;29;20239;-59
2023/04/18 14:37:38;;;;;;;11.90;10.67;;;16.00;99.90;;;;;;4859852;29;20247;-57
2023/04/18 14:40:08;;;;;;;12.80;11.50;;;15.60;99.90;;;;;;4863130;29;20610;-59
2023/04/18 14:42:37;;;;;;;12.90;11.57;;;15.20;99.90;;;;;;4862882;29;20227;-59
2023/04/18 14:45:07;;;;;;;12.70;11.47;;;15.00;99.90;;;;;;4861145;29;20235;-59
2023/04/18 14:47:40;;;;;;;15.77;12.03;;;15.30;99.90;;;;;;4858721;29;20222;-56
2023/04/18 14:50:11;;;;;;;13.07;11.70;;;15.70;99.90;;;;;;4862792;29;20334;-59
2023/04/18 14:52:40;;;;;;;13.77;12.37;;;15.80;99.90;;;;;;4856123;29;20628;-56
2023/04/18 14:55:10;;;;;;;14.03;12.63;;;15.90;99.90;;;;;;4854721;29;20220;-56
2023/04/18 14:57:39;;;;;;;15.07;13.23;;;15.40;99.90;;;;;;4857750;29;20307;-56
2023/04/18 15:00:09;;;;;;;17.13;12.57;;;15.00;99.90;;;;;;4855400;29;20227;-56
2023/04/18 15:02:39;;;;;;;14.73;12.77;;;15.10;99.90;;;;;;4866095;29;20223;-59
2023/04/18 15:05:09;;;;;;;13.93;12.30;;;15.40;99.90;;;;;;4859969;29;20235;-59
2023/04/18 15:07:37;;;;;;;15.00;12.13;;;15.50;99.90;;;;;;4858588;29;20211;-59
2023/04/18 15:10:07;;;;;;;13.50;12.00;;;15.70;99.90;;;;;;4862883;29;20204;-59
2023/04/18 15:12:35;;;;;;;16.60;13.30;;;15.60;99.90;;;;;;4862235;29;20564;-56
2023/04/18 15:15:04;;;;;;;15.00;13.43;;;15.40;99.90;;;;;;4860434;29;20228;-57
2023/04/18 15:17:32;;;;;;;15.83;13.80;;;15.50;99.90;;;;;;4861254;29;20287;-56
2023/04/18 15:20:04;;;;;;;17.60;14.10;;;15.50;99.90;;;;;;4861146;29;20315;-56
2023/04/18 15:22:32;;;;;;;17.37;14.63;;;15.80;99.90;;;;;;4858778;29;20323;-57
2023/04/18 15:25:00;;;;;;;19.87;14.70;;;16.00;99.90;;;;;;4859553;29;20248;-56
2023/04/18 15:27:29;;;;;;;17.67;15.57;;;15.80;99.90;;;;;;4857610;29;20227;-56
2023/04/18 15:29:57;;;;;;;16.73;15.03;;;15.80;99.90;;;;;;4854544;29;20895;-58
2023/04/18 15:32:26;;;;;;;17.27;14.67;;;15.90;99.90;;;;;;4857837;29;20239;-57
2023/04/18 15:34:54;;;;;;;17.30;13.93;;;15.70;99.90;;;;;;4858477;29;20228;-57
2023/04/18 15:37:25;;;;;;;16.03;14.43;;;16.00;99.90;;;;;;4857240;29;20664;-56
2023/04/18 15:39:53;;;;;;;16.83;15.03;;;16.30;99.90;;;;;;4857507;29;20199;-56
2023/04/18 15:42:21;;;;;;;17.80;14.93;;;16.20;99.90;;;;;;4851689;29;20225;-57
2023/04/18 15:44:49;;;;;;;17.77;15.37;;;15.80;99.90;;;;;;4855357;29;20613;-56
2023/04/18 15:47:18;;;;;;;19.37;16.07;;;15.40;99.90;;;;;;4857109;29;20266;-56
2023/04/18 15:49:46;;;;;;;19.17;15.40;;;15.30;99.90;;;;;;4856878;29;20283;-57
2023/04/18 15:52:15;;;;;;;18.23;15.00;;;15.30;99.90;;;;;;4857930;29;20207;-56
2023/04/18 15:54:45;;;;;;;19.33;15.87;;;15.30;99.90;;;;;;4859186;29;20616;-56
2023/04/18 15:57:13;;;;;;;19.53;15.93;;;15.40;99.90;;;;;;4858377;29;20231;-56
2023/04/18 15:59:42;;;;;;;20.93;15.57;;;15.70;99.90;;;;;;4857985;29;20282;-57
2023/04/18 16:02:10;;;;;;;16.57;14.77;;;15.90;99.90;;;;;;4857952;29;20770;-57
2023/04/18 16:04:39;;;;;;;18.33;15.50;;;16.10;99.90;;;;;;4858199;29;20223;-56
2023/04/18 16:07:07;;;;;;;17.73;14.50;;;15.80;99.90;;;;;;4857307;29;20195;-56
2023/04/18 16:09:36;;;;;;;18.97;15.43;;;15.80;99.90;;;;;;4852384;29;20698;-57
2023/04/18 16:12:07;;;;;;;20.07;15.33;;;15.80;99.90;;;;;;4844677;29;20276;-56
2023/04/18 16:14:35;;;;;;;18.03;15.67;;;15.60;99.90;;;;;;4857648;29;20235;-56
2023/04/18 16:17:03;;;;;;;18.83;16.00;;;15.80;99.90;;;;;;4851380;29;20340;-57
2023/04/18 16:19:32;;;;;;;17.37;15.37;;;16.00;99.90;;;;;;4854060;29;20192;-56
2023/04/18 16:22:03;;;;;;;18.90;15.87;;;16.00;99.90;;;;;;4856826;29;20235;-57
2023/04/18 16:24:31;;;;;;;20.67;16.57;;;15.50;99.90;;;;;;4858552;29;20227;-56
2023/04/18 16:26:59;;;;;;;18.87;15.40;;;15.30;99.90;;;;;;4845567;29;20240;-59
2023/04/18 16:29:29;;;;;;;20.40;16.27;;;15.40;99.90;;;;;;4846245;29;20285;-59
2023/04/18 16:31:57;;;;;;;21.40;17.00;;;15.30;99.90;;;;;;4852392;29;20239;-59
2023/04/18 16:34:25;;;;;;;19.30;16.03;;;15.30;99.90;;;;;;4857540;29;20219;-59
2023/04/18 16:36:56;;;;;;;19.67;16.20;;;15.30;99.90;;;;;;4855401;29;20199;-59
2023/04/18 16:39:24;;;;;;;18.83;16.33;;;15.40;99.90;;;;;;4856370;29;20254;-59
2023/04/18 16:41:53;;;;;;;18.93;15.77;;;15.40;99.90;;;;;;4851899;29;20299;-59
2023/04/18 16:44:21;;;;;;;19.80;16.50;;;15.40;99.90;;;;;;4854785;29;20223;-57
2023/04/18 16:46:51;;;;;;;17.63;15.67;;;15.30;99.90;;;;;;4856812;29;20228;-56
2023/04/18 16:49:19;;;;;;;18.93;16.40;;;15.40;99.90;;;;;;4848593;29;20203;-57
2023/04/18 16:51:47;;;;;;;18.23;15.40;;;15.50;99.90;;;;;;4851227;29;20498;-60
2023/04/18 16:54:16;;;;;;;18.60;15.00;;;15.50;99.90;;;;;;4856194;29;20279;-59
2023/04/18 16:56:45;;;;;;;17.20;14.87;;;15.40;99.90;;;;;;4854685;29;20279;-60
2023/04/18 16:59:13;;;;;;;16.63;14.83;;;15.40;99.90;;;;;;4856671;29;20312;-57
2023/04/18 17:01:42;;;;;;;20.50;15.77;;;15.40;99.90;;;;;;4857869;29;20239;-57
2023/04/18 17:04:12;;;;;;;18.20;14.77;;;15.40;99.90;;;;;;4858926;29;20307;-58
2023/04/18 17:06:41;;;;;;;18.13;14.57;;;15.50;99.90;;;;;;4854369;29;20219;-58
2023/04/18 17:09:12;;;;;;;17.77;15.50;;;15.40;99.90;;;;;;4855518;29;20254;-58
2023/04/18 17:11:41;;;;;;;20.50;16.27;;;15.50;99.90;;;;;;4857575;29;20223;-58
2023/04/18 17:14:09;;;;;;;20.77;17.10;;;15.40;99.90;;;;;;4855772;29;20228;-58
2023/04/18 17:16:40;;;;;;;21.53;16.37;;;15.40;99.90;;;;;;4860278;29;20795;-58
2023/04/18 17:19:09;;;;;;;19.47;15.97;;;15.30;99.90;;;;;;4853725;29;20543;-58
2023/04/18 17:21:39;;;;;;;20.23;17.53;;;15.30;99.90;;;;;;4844778;29;20763;-57
2023/04/18 17:24:08;;;;;;;20.57;16.93;;;15.30;99.90;;;;;;4848145;29;20234;-57
2023/04/18 17:26:38;;;;;;;24.30;18.20;;;15.50;99.90;;;;;;4857721;29;20231;-58
2023/04/18 17:29:06;;;;;;;20.23;16.97;;;15.40;99.90;;;;;;4854676;29;20238;-58
2023/04/18 17:31:35;;;;;;;23.63;17.30;;;15.30;99.90;;;;;;4850898;29;20199;-58
2023/04/18 17:34:03;;;;;;;21.13;18.07;;;15.20;99.90;;;;;;4854682;29;20227;-58
2023/04/18 17:36:31;;;;;;;21.17;18.20;;;14.90;99.90;;;;;;4852531;29;20702;-58
2023/04/18 17:39:05;;;;;;;26.37;18.87;;;14.80;99.90;;;;;;4852732;29;20228;-58
2023/04/18 17:41:36;;;;;;;23.57;19.07;;;14.60;99.90;;;;;;4856383;29;20272;-58
2023/04/18 17:44:06;;;;;;;25.00;19.07;;;14.40;99.90;;;;;;4856027;29;20779;-58
2023/04/18 17:46:35;;;;;;;25.10;19.43;;;14.50;99.90;;;;;;4856832;29;20290;-58
2023/04/18 17:49:03;;;;;;;26.30;20.57;;;14.30;99.90;;;;;;4855700;29;20203;-58
2023/04/18 17:51:31;;;;;;;26.33;20.43;;;14.20;99.90;;;;;;4850977;29;20324;-58
2023/04/18 17:54:01;;;;;;;22.90;19.47;;;14.10;99.90;;;;;;4855363;29;20318;-57
2023/04/18 17:56:30;;;;;;;26.57;20.10;;;14.10;99.90;;;;;;4858965;29;20223;-58
2023/04/18 17:58:58;;;;;;;28.53;21.03;;;14.10;99.90;;;;;;4864199;29;20267;-57
2023/04/18 18:01:29;;;;;;;26.73;20.77;;;13.90;99.90;;;;;;4857273;29;20256;-58
2023/04/18 18:03:57;;;;;;;29.13;21.57;;;13.80;99.90;;;;;;4855751;29;20304;-58